Time;durP1;ratioP1;P1;durP2;ratioP2;P2;SDS_P1;SDS_P2;PMS_P1;PMS_P2;Temp;Humidity;BMP_temperature;BMP_pressure;BME280_temperature;BME280_humidity;BME280_pressure;Samples;Min_cycle;Max_cycle;Signal;HPM_P1;HPM_P2
2021/06/06 00:01:31;;;;;;;28.20;15.68;;;17.80;99.90;;;;;;5005278;28;20037;-74
2021/06/06 00:03:58;;;;;;;31.27;14.82;;;17.80;99.90;;;;;;5005031;28;20860;-74
2021/06/06 00:06:28;;;;;;;30.17;14.65;;;17.80;99.90;;;;;;5005093;28;20082;-73
2021/06/06 00:08:54;;;;;;;29.35;15.35;;;17.80;99.90;;;;;;5005288;28;20744;-74
2021/06/06 00:11:30;;;;;;;27.92;14.75;;;17.80;99.90;;;;;;5004954;28;20062;-74
2021/06/06 00:13:58;;;;;;;36.78;16.48;;;17.80;99.90;;;;;;5004851;28;20034;-76
2021/06/06 00:16:28;;;;;;;35.92;16.30;;;17.80;99.90;;;;;;5004977;28;20050;-74
2021/06/06 00:18:54;;;;;;;40.00;17.38;;;17.80;99.90;;;;;;5004398;28;20030;-73
2021/06/06 00:21:20;;;;;;;32.60;16.40;;;17.80;99.90;;;;;;5004968;28;20054;-73
2021/06/06 00:23:47;;;;;;;35.15;17.48;;;17.80;99.90;;;;;;5005159;28;20027;-73
2021/06/06 00:26:13;;;;;;;36.55;18.45;;;17.70;99.90;;;;;;5004766;28;20037;-74
2021/06/06 00:28:38;;;;;;;33.47;17.52;;;17.80;99.90;;;;;;5004932;28;20026;-75
2021/06/06 00:31:07;;;;;;;35.45;17.67;;;17.80;99.90;;;;;;5020223;28;20129;-74
2021/06/06 00:33:33;;;;;;;32.15;16.15;;;17.80;99.90;;;;;;5004967;28;20076;-73
2021/06/06 00:35:59;;;;;;;43.10;18.50;;;17.80;99.90;;;;;;5004843;28;20030;-74
2021/06/06 00:38:25;;;;;;;36.60;16.38;;;17.80;99.90;;;;;;5004917;28;20434;-74
2021/06/06 00:40:51;;;;;;;40.08;19.30;;;17.80;99.90;;;;;;5004484;28;20054;-75
2021/06/06 00:43:17;;;;;;;40.22;18.63;;;17.60;99.90;;;;;;5004858;28;20030;-74
2021/06/06 00:45:43;;;;;;;47.22;19.08;;;17.70;99.90;;;;;;5004929;28;20125;-74
2021/06/06 00:48:09;;;;;;;34.97;17.67;;;17.60;99.90;;;;;;5005004;28;20114;-72
2021/06/06 00:50:43;;;;;;;48.63;21.42;;;17.60;99.90;;;;;;5003701;28;20150;-74
2021/06/06 00:53:18;;;;;;;49.92;24.02;;;17.60;99.90;;;;;;5004849;28;20023;-69
2021/06/06 00:55:43;;;;;;;67.38;23.55;;;17.50;99.90;;;;;;5019421;28;20034;-73
2021/06/06 00:58:12;;;;;;;62.97;26.00;;;17.40;99.90;;;;;;5004577;28;20073;-75
2021/06/06 01:00:45;;;;;;;71.80;26.92;;;17.40;99.90;;;;;;5004871;28;20053;-74
2021/06/06 01:03:11;;;;;;;70.43;28.27;;;17.30;99.90;;;;;;5004437;28;20046;-70
2021/06/06 01:06:00;;;;;;;77.32;27.42;;;17.20;99.90;;;;;;5005005;28;20033;-71
2021/06/06 01:08:27;;;;;;;61.65;24.88;;;17.10;99.90;;;;;;5004391;28;20033;-72
2021/06/06 01:11:02;;;;;;;87.80;27.45;;;17.10;99.90;;;;;;5004284;28;20045;-71
2021/06/06 01:13:51;;;;;;;61.03;23.88;;;17.10;99.90;;;;;;5004725;28;20037;-73
2021/06/06 01:16:20;;;;;;;68.40;24.25;;;17.00;99.90;;;;;;5002718;28;20034;-74
2021/06/06 01:18:49;;;;;;;66.78;23.63;;;17.00;99.90;;;;;;5004743;28;20042;-71
2021/06/06 01:21:42;;;;;;;55.15;22.55;;;16.90;99.90;;;;;;5004367;28;20037;-72
2021/06/06 01:24:19;;;;;;;65.85;25.02;;;16.90;99.90;;;;;;5004418;28;20026;-71
2021/06/06 01:27:01;;;;;;;65.85;24.13;;;16.90;99.90;;;;;;5004574;28;20033;-73
2021/06/06 01:30:21;;;;;;;53.13;22.52;;;16.90;99.90;;;;;;5006505;28;20061;-71
2021/06/06 01:33:01;;;;;;;46.10;18.08;;;16.80;99.90;;;;;;4966727;29;20062;-72
2021/06/06 01:35:39;;;;;;;64.75;20.63;;;16.80;99.90;;;;;;5016507;28;20034;-73
2021/06/06 01:38:13;;;;;;;57.67;22.02;;;16.80;99.90;;;;;;5006664;28;20022;-71
2021/06/06 01:40:40;;;;;;;;;;;16.70;99.90;;;;;;5008437;28;20038;-72
2021/06/06 01:43:11;;;;;;;46.38;19.33;;;16.70;99.90;;;;;;5007535;28;20425;-71
2021/06/06 01:45:51;;;;;;;60.88;18.27;;;16.70;99.90;;;;;;5007910;28;20057;-73
2021/06/06 01:48:17;;;;;;;45.13;17.73;;;16.60;99.90;;;;;;5007847;28;20045;-74
2021/06/06 01:51:11;;;;;;;51.17;16.60;;;16.60;99.90;;;;;;5007444;28;20039;-72
2021/06/06 01:53:43;;;;;;;38.97;13.95;;;16.60;99.90;;;;;;5021187;28;20034;-69
2021/06/06 01:56:10;;;;;;;47.40;17.00;;;16.70;99.90;;;;;;5007665;28;20030;-69
2021/06/06 01:58:37;;;;;;;35.08;15.02;;;16.60;99.90;;;;;;5006951;28;20042;-70
2021/06/06 02:01:13;;;;;;;39.42;15.60;;;16.60;99.90;;;;;;5023013;28;20382;-72
2021/06/06 02:03:40;;;;;;;42.70;15.00;;;16.50;99.90;;;;;;5007098;28;20042;-74
2021/06/06 02:06:10;;;;;;;34.40;13.52;;;16.50;99.90;;;;;;5006101;28;20027;-69
2021/06/06 02:08:37;;;;;;;32.55;13.57;;;16.50;99.90;;;;;;5007743;28;20023;-69
2021/06/06 02:11:14;;;;;;;34.38;14.05;;;16.40;99.90;;;;;;5006980;28;20076;-73
2021/06/06 02:13:43;;;;;;;34.95;14.75;;;16.40;99.90;;;;;;5007307;28;20033;-71
2021/06/06 02:16:12;;;;;;;31.55;13.90;;;16.40;99.90;;;;;;5022212;28;20406;-70
2021/06/06 02:18:38;;;;;;;36.28;13.70;;;16.40;99.90;;;;;;5005691;28;20038;-71
2021/06/06 02:21:04;;;;;;;30.48;13.00;;;16.40;99.90;;;;;;5007412;28;20045;-73
2021/06/06 02:23:34;;;;;;;31.13;13.18;;;16.40;99.90;;;;;;5007078;28;20034;-71
2021/06/06 02:26:10;;;;;;;37.20;15.65;;;16.30;99.90;;;;;;5007036;28;20188;-68
2021/06/06 02:29:10;;;;;;;31.13;13.07;;;16.40;99.90;;;;;;5007128;28;20029;-69
2021/06/06 02:31:54;;;;;;;39.05;14.63;;;16.30;99.90;;;;;;5006764;28;20090;-71
2021/06/06 02:34:23;;;;;;;53.65;14.68;;;16.20;99.90;;;;;;5006952;28;20069;-69
2021/06/06 02:36:54;;;;;;;34.90;15.27;;;16.20;99.90;;;;;;5006919;28;20053;-70
2021/06/06 02:39:37;;;;;;;34.58;13.50;;;16.20;99.90;;;;;;5006319;28;20026;-69
2021/06/06 02:42:12;;;;;;;27.02;13.18;;;16.20;99.90;;;;;;5006908;28;20026;-73
2021/06/06 02:44:50;;;;;;;40.58;14.07;;;16.20;99.90;;;;;;5021805;28;20030;-77
2021/06/06 02:47:19;;;;;;;42.28;15.65;;;16.20;99.90;;;;;;5006226;28;20030;-74
2021/06/06 02:49:46;;;;;;;41.05;15.63;;;16.10;99.90;;;;;;5006322;28;20069;-70
2021/06/06 02:52:19;;;;;;;47.50;15.10;;;16.10;99.90;;;;;;5008552;28;20054;-71
2021/06/06 02:54:49;;;;;;;39.95;16.52;;;16.10;99.90;;;;;;5006047;28;20030;-74
2021/06/06 02:57:18;;;;;;;40.03;15.25;;;16.00;99.90;;;;;;5006480;28;20030;-75
2021/06/06 02:59:53;;;;;;;40.70;16.13;;;16.00;99.90;;;;;;5005755;28;20057;-72
2021/06/06 03:02:23;;;;;;;49.58;17.92;;;16.00;99.90;;;;;;5006204;28;20224;-71
2021/06/06 03:05:00;;;;;;;48.67;18.75;;;16.10;99.90;;;;;;5006210;28;20027;-72
2021/06/06 03:07:37;;;;;;;53.42;19.25;;;16.00;99.90;;;;;;5006079;28;20054;-71
2021/06/06 03:10:05;;;;;;;52.38;17.50;;;16.10;99.90;;;;;;5006396;28;20044;-72
2021/06/06 03:12:32;;;;;;;56.75;20.25;;;16.00;99.90;;;;;;5006238;28;20038;-73
2021/06/06 03:15:00;;;;;;;56.65;19.40;;;16.00;99.90;;;;;;5005909;28;20042;-72
2021/06/06 03:17:40;;;;;;;46.17;18.25;;;16.00;99.90;;;;;;5006156;28;20030;-70
2021/06/06 03:20:34;;;;;;;59.80;18.20;;;16.00;99.90;;;;;;5005978;28;20022;-74
2021/06/06 03:23:02;;;;;;;46.53;16.95;;;15.90;99.90;;;;;;4990711;28;20561;-71
2021/06/06 03:25:41;;;;;;;50.42;18.45;;;16.00;99.90;;;;;;5005669;28;20112;-70
2021/06/06 03:28:09;;;;;;;51.65;17.30;;;16.00;99.90;;;;;;5005503;28;20026;-72
2021/06/06 03:30:48;;;;;;;48.53;16.73;;;16.00;99.90;;;;;;5005702;28;20065;-72
2021/06/06 03:33:17;;;;;;;54.40;16.67;;;16.00;99.90;;;;;;5005837;28;20026;-73
2021/06/06 03:35:43;;;;;;;42.97;16.30;;;16.00;99.90;;;;;;5005241;28;20026;-73
2021/06/06 03:38:11;;;;;;;45.50;15.90;;;16.00;99.90;;;;;;5005791;28;20026;-72
2021/06/06 03:40:41;;;;;;;47.42;18.13;;;16.00;99.90;;;;;;5005741;28;20045;-72
2021/06/06 03:43:11;;;;;;;43.25;15.77;;;16.00;99.90;;;;;;5003992;28;20026;-73
2021/06/06 03:45:38;;;;;;;42.15;15.75;;;15.90;99.90;;;;;;5005534;28;20069;-72
2021/06/06 03:48:04;;;;;;;53.22;16.70;;;16.00;99.90;;;;;;5005612;28;20030;-73
2021/06/06 03:50:31;;;;;;;45.42;15.43;;;15.90;99.90;;;;;;5003747;28;20038;-74
2021/06/06 03:52:57;;;;;;;33.05;13.73;;;15.80;99.90;;;;;;5004142;28;20030;-72
2021/06/06 03:55:23;;;;;;;49.78;14.20;;;15.80;99.90;;;;;;5005425;28;20030;-71
2021/06/06 03:57:50;;;;;;;42.72;14.52;;;15.80;99.90;;;;;;5004611;28;20483;-75
2021/06/06 04:00:26;;;;;;;42.05;14.48;;;15.90;99.90;;;;;;5003859;28;20050;-72
2021/06/06 04:02:52;;;;;;;43.58;15.45;;;15.80;99.90;;;;;;5005197;28;20030;-72
2021/06/06 04:05:19;;;;;;;35.38;13.27;;;15.80;99.90;;;;;;5005030;28;20029;-73
2021/06/06 04:07:44;;;;;;;31.02;13.35;;;15.80;99.90;;;;;;5005181;28;20026;-75
2021/06/06 04:10:10;;;;;;;58.53;15.23;;;15.80;99.90;;;;;;5005043;28;20048;-70
2021/06/06 04:12:36;;;;;;;39.25;14.45;;;15.80;99.90;;;;;;5019919;28;20045;-72
2021/06/06 04:15:04;;;;;;;32.25;12.23;;;15.80;99.90;;;;;;5020319;28;20030;-73
2021/06/06 04:17:29;;;;;;;38.65;13.15;;;15.80;99.90;;;;;;5005054;28;20048;-72
2021/06/06 04:19:56;;;;;;;26.13;11.23;;;15.80;99.90;;;;;;5004336;28;20542;-73
2021/06/06 04:22:22;;;;;;;25.92;10.55;;;15.80;99.90;;;;;;5005150;28;20026;-73
2021/06/06 04:24:48;;;;;;;27.20;9.85;;;15.80;99.90;;;;;;5005027;28;20031;-74
2021/06/06 04:27:14;;;;;;;20.20;9.88;;;15.70;99.90;;;;;;5004651;28;20030;-73
2021/06/06 04:29:39;;;;;;;26.63;10.05;;;15.60;99.90;;;;;;5003783;28;20106;-74
2021/06/06 04:32:05;;;;;;;31.50;10.77;;;15.70;99.90;;;;;;5004848;28;20042;-73
2021/06/06 04:34:33;;;;;;;33.75;10.43;;;15.70;99.90;;;;;;5004506;28;20026;-76
2021/06/06 04:37:00;;;;;;;25.63;10.05;;;15.60;99.90;;;;;;5005124;28;20469;-71
2021/06/06 04:39:26;;;;;;;34.72;11.75;;;15.60;99.90;;;;;;5004687;28;20026;-73
2021/06/06 04:41:52;;;;;;;32.80;11.27;;;15.80;99.90;;;;;;5004707;28;20521;-72
2021/06/06 04:44:18;;;;;;;28.98;10.05;;;15.70;99.90;;;;;;5004842;28;20034;-74
2021/06/06 04:46:43;;;;;;;29.33;11.70;;;15.70;99.90;;;;;;5004472;28;20040;-74
2021/06/06 04:49:09;;;;;;;31.55;10.02;;;15.70;99.90;;;;;;5004618;28;20050;-75
2021/06/06 04:51:35;;;;;;;23.75;9.93;;;15.70;99.90;;;;;;5004917;28;20068;-74
2021/06/06 04:54:00;;;;;;;28.63;9.00;;;15.70;99.90;;;;;;5005129;28;20542;-72
2021/06/06 04:56:28;;;;;;;27.00;9.60;;;15.70;99.90;;;;;;5004696;28;20034;-71
2021/06/06 04:58:55;;;;;;;29.75;10.73;;;15.70;99.90;;;;;;5003221;28;20038;-73
2021/06/06 05:01:20;;;;;;;28.35;9.32;;;15.70;99.90;;;;;;5004387;28;20038;-71
2021/06/06 05:03:46;;;;;;;28.13;11.10;;;15.70;99.90;;;;;;5005800;28;20046;-73
2021/06/06 05:06:13;;;;;;;31.88;11.63;;;15.70;99.90;;;;;;5008627;28;20032;-74
2021/06/06 05:08:39;;;;;;;25.92;9.27;;;15.70;99.90;;;;;;5008424;28;20458;-76
2021/06/06 05:11:06;;;;;;;29.45;9.65;;;15.80;99.90;;;;;;5008611;28;20090;-73
2021/06/06 05:13:32;;;;;;;25.13;9.55;;;15.70;99.90;;;;;;5008460;28;20030;-71
2021/06/06 05:15:58;;;;;;;21.38;9.05;;;15.80;99.90;;;;;;5007997;28;20033;-73
2021/06/06 05:18:24;;;;;;;17.98;7.85;;;15.90;99.90;;;;;;5008249;28;20098;-74
2021/06/06 05:20:52;;;;;;;29.83;9.57;;;15.80;99.90;;;;;;5008218;28;20053;-72
2021/06/06 05:23:19;;;;;;;21.75;8.90;;;15.90;99.90;;;;;;5007643;28;20430;-72
2021/06/06 05:25:46;;;;;;;25.00;8.95;;;15.90;99.90;;;;;;5007807;28;20409;-73
2021/06/06 05:28:15;;;;;;;19.88;9.07;;;16.00;99.90;;;;;;5008085;28;20030;-73
2021/06/06 05:30:42;;;;;;;19.85;7.88;;;16.00;99.90;;;;;;5007637;28;20042;-73
2021/06/06 05:33:09;;;;;;;19.27;8.43;;;16.10;99.90;;;;;;5008131;28;20086;-71
2021/06/06 05:35:36;;;;;;;20.25;8.25;;;16.10;99.90;;;;;;5008092;28;20126;-72
2021/06/06 05:38:03;;;;;;;14.88;7.68;;;16.10;99.90;;;;;;5006356;28;20106;-72
2021/06/06 05:40:30;;;;;;;14.02;7.40;;;16.10;99.90;;;;;;5008005;28;20026;-73
2021/06/06 05:42:56;;;;;;;19.20;7.10;;;16.20;99.90;;;;;;5007429;28;20136;-72
2021/06/06 05:45:23;;;;;;;17.15;7.47;;;16.10;99.90;;;;;;5007543;28;20026;-74
2021/06/06 05:47:50;;;;;;;21.45;7.88;;;16.20;99.90;;;;;;5006314;28;20026;-73
2021/06/06 05:50:19;;;;;;;18.95;8.48;;;16.20;99.90;;;;;;5006114;28;20057;-73
2021/06/06 05:52:45;;;;;;;27.70;8.52;;;16.20;99.90;;;;;;5007431;28;20030;-73
2021/06/06 05:55:12;;;;;;;22.65;8.93;;;16.30;99.90;;;;;;5006181;28;20034;-73
2021/06/06 05:57:39;;;;;;;18.60;8.75;;;16.30;99.90;;;;;;5007282;28;20082;-73
2021/06/06 06:00:07;;;;;;;21.20;8.27;;;16.40;99.90;;;;;;5007555;28;20137;-73
2021/06/06 06:02:33;;;;;;;19.80;8.13;;;16.30;99.90;;;;;;5010898;28;20023;-73
2021/06/06 06:04:59;;;;;;;20.17;8.38;;;16.30;99.90;;;;;;5012851;28;20035;-74
2021/06/06 06:07:24;;;;;;;25.77;9.68;;;16.30;99.90;;;;;;5023456;28;20050;-71
2021/06/06 06:09:51;;;;;;;18.30;7.95;;;16.30;99.90;;;;;;5007431;28;20030;-73
2021/06/06 06:12:16;;;;;;;20.40;6.75;;;16.30;99.90;;;;;;5006867;28;20129;-74
2021/06/06 06:14:42;;;;;;;16.23;8.27;;;16.20;99.90;;;;;;5004917;28;20026;-75
2021/06/06 06:17:07;;;;;;;18.98;8.13;;;16.10;99.90;;;;;;5007180;28;20049;-74
2021/06/06 06:19:33;;;;;;;20.10;7.25;;;16.30;99.90;;;;;;5007084;28;20152;-74
2021/06/06 06:21:59;;;;;;;16.63;8.55;;;16.20;99.90;;;;;;5006942;28;20513;-75
2021/06/06 06:24:24;;;;;;;16.60;8.00;;;16.10;99.90;;;;;;5007025;28;20026;-74
2021/06/06 06:26:51;;;;;;;20.50;8.32;;;16.10;99.90;;;;;;5005228;28;20034;-73
2021/06/06 06:29:17;;;;;;;16.08;8.27;;;16.20;99.90;;;;;;5006923;28;20027;-74
2021/06/06 06:31:43;;;;;;;16.38;8.20;;;16.20;99.90;;;;;;5005593;28;20045;-74
2021/06/06 06:34:08;;;;;;;25.58;8.45;;;16.20;99.90;;;;;;5005351;28;20026;-74
2021/06/06 06:36:34;;;;;;;27.00;9.60;;;16.20;99.90;;;;;;5006781;28;20049;-76
2021/06/06 06:38:59;;;;;;;23.05;9.07;;;16.20;99.90;;;;;;5006582;28;20030;-70
2021/06/06 06:41:27;;;;;;;24.00;7.82;;;16.10;99.90;;;;;;5006607;28;20545;-73
2021/06/06 06:43:54;;;;;;;15.90;8.32;;;16.20;99.90;;;;;;5006615;28;20026;-71
2021/06/06 06:46:20;;;;;;;19.38;9.18;;;16.20;99.90;;;;;;5006426;28;20058;-71
2021/06/06 06:48:54;;;;;;;28.50;9.45;;;16.10;99.90;;;;;;5006651;28;20027;-72
2021/06/06 06:51:20;;;;;;;21.47;9.87;;;16.20;99.90;;;;;;5006566;28;20094;-74
2021/06/06 06:53:46;;;;;;;20.73;9.80;;;16.20;99.90;;;;;;5006353;28;20030;-73
2021/06/06 06:56:13;;;;;;;23.52;9.43;;;16.10;99.90;;;;;;5005012;28;20030;-75
2021/06/06 06:58:38;;;;;;;20.25;8.20;;;16.10;99.90;;;;;;5004942;28;20049;-75
2021/06/06 07:01:04;;;;;;;25.35;9.32;;;16.10;99.90;;;;;;5004863;28;20410;-74
2021/06/06 07:03:33;;;;;;;23.33;8.70;;;16.10;99.90;;;;;;5005025;28;20479;-74
2021/06/06 07:06:04;;;;;;;24.00;9.27;;;16.10;99.90;;;;;;5006233;28;20049;-74
2021/06/06 07:08:33;;;;;;;20.65;9.65;;;16.00;99.90;;;;;;5005851;28;20034;-73
2021/06/06 07:10:59;;;;;;;24.63;9.00;;;16.10;99.90;;;;;;5013352;28;20038;-74
2021/06/06 07:13:25;;;;;;;26.73;8.70;;;16.10;99.90;;;;;;5021233;28;20023;-74
2021/06/06 07:15:53;;;;;;;20.30;9.50;;;16.20;99.90;;;;;;5020648;28;20026;-74
2021/06/06 07:18:21;;;;;;;19.23;8.23;;;16.20;99.90;;;;;;5005740;28;20038;-75
2021/06/06 07:20:50;;;;;;;14.38;6.93;;;16.20;99.90;;;;;;5005711;28;20028;-75
2021/06/06 07:23:16;;;;;;;19.70;8.65;;;16.20;99.90;;;;;;5004238;28;20078;-72
2021/06/06 07:25:44;;;;;;;19.25;8.45;;;16.30;99.90;;;;;;5005629;28;20022;-74
2021/06/06 07:28:15;;;;;;;14.75;7.43;;;16.20;99.90;;;;;;5003986;28;20026;-72
2021/06/06 07:30:46;;;;;;;21.42;7.80;;;16.30;99.90;;;;;;5004316;28;20074;-73
2021/06/06 07:33:14;;;;;;;16.05;8.02;;;16.30;99.90;;;;;;5005924;28;20026;-74
2021/06/06 07:35:40;;;;;;;20.20;7.80;;;16.30;99.90;;;;;;5005547;28;20545;-75
2021/06/06 07:38:06;;;;;;;17.20;7.20;;;16.30;99.90;;;;;;5004423;28;20030;-75
2021/06/06 07:40:39;;;;;;;18.25;8.70;;;16.40;99.90;;;;;;5005733;28;20062;-72
2021/06/06 07:43:05;;;;;;;19.55;8.38;;;16.40;99.90;;;;;;5005174;28;20130;-73
2021/06/06 07:45:32;;;;;;;24.00;8.63;;;16.30;99.90;;;;;;5005707;28;20037;-75
2021/06/06 07:47:57;;;;;;;21.17;8.60;;;16.30;99.90;;;;;;5005589;28;20053;-76
2021/06/06 07:50:28;;;;;;;25.63;9.07;;;16.40;99.90;;;;;;5004772;28;20034;-71
2021/06/06 07:52:54;;;;;;;22.52;8.60;;;16.30;99.90;;;;;;5003921;28;20056;-74
2021/06/06 07:55:22;;;;;;;19.88;9.50;;;16.40;99.90;;;;;;5004948;28;20027;-72
2021/06/06 07:57:49;;;;;;;24.23;9.02;;;16.30;99.90;;;;;;5004955;28;20026;-74
2021/06/06 08:00:28;;;;;;;26.65;8.88;;;16.30;99.90;;;;;;5002940;28;20050;-73
2021/06/06 08:02:54;;;;;;;13.68;7.72;;;16.40;99.90;;;;;;5003369;28;20037;-74
2021/06/06 08:05:20;;;;;;;17.98;8.13;;;16.40;99.90;;;;;;5005494;28;20026;-75
2021/06/06 08:07:47;;;;;;;10.05;6.63;;;16.50;99.90;;;;;;5003768;28;20034;-75
2021/06/06 08:10:15;;;;;;;16.40;6.88;;;16.50;99.90;;;;;;5016883;28;20029;-76
2021/06/06 08:12:41;;;;;;;16.73;6.88;;;16.60;99.90;;;;;;5020648;28;20023;-75
2021/06/06 08:15:08;;;;;;;13.10;7.05;;;16.50;99.90;;;;;;5016807;28;20116;-73
2021/06/06 08:17:34;;;;;;;18.70;8.63;;;16.50;99.90;;;;;;5013763;28;20030;-75
2021/06/06 08:20:00;;;;;;;16.30;8.95;;;16.50;99.90;;;;;;5024919;28;20141;-74
2021/06/06 08:22:26;;;;;;;15.73;7.55;;;16.60;99.90;;;;;;5020610;28;20030;-72
2021/06/06 08:24:51;;;;;;;21.42;9.00;;;16.60;99.90;;;;;;5004692;28;20431;-74
2021/06/06 08:27:17;;;;;;;20.92;8.48;;;16.60;99.90;;;;;;5005227;28;20368;-77
2021/06/06 08:29:43;;;;;;;22.13;9.18;;;16.70;99.90;;;;;;5005083;28;20036;-75
2021/06/06 08:32:10;;;;;;;25.35;10.55;;;16.60;99.90;;;;;;5004803;28;20042;-75
2021/06/06 08:34:36;;;;;;;20.90;9.27;;;16.60;99.90;;;;;;5019671;28;20037;-73
2021/06/06 08:37:05;;;;;;;18.27;8.68;;;16.70;99.90;;;;;;5022290;28;20066;-74
2021/06/06 08:39:33;;;;;;;19.05;8.88;;;16.70;99.90;;;;;;5025908;28;20036;-73
2021/06/06 08:42:08;;;;;;;20.23;8.88;;;16.70;99.90;;;;;;5028984;28;20022;-76
2021/06/06 08:44:39;;;;;;;18.73;9.10;;;16.70;99.90;;;;;;5027906;28;20046;-74
2021/06/06 08:47:27;;;;;;;17.70;8.95;;;16.80;99.90;;;;;;5028344;28;20032;-76
2021/06/06 08:49:56;;;;;;;19.02;8.57;;;16.80;99.90;;;;;;5027400;28;20029;-74
2021/06/06 08:52:41;;;;;;;16.73;7.97;;;16.90;99.90;;;;;;5024569;28;20049;-74
2021/06/06 08:55:31;;;;;;;14.93;8.15;;;16.90;99.90;;;;;;5026437;28;20096;-74
2021/06/06 08:58:15;;;;;;;19.70;8.82;;;16.90;99.90;;;;;;5023682;28;20631;-73
2021/06/06 09:00:45;;;;;;;19.85;8.95;;;16.90;99.90;;;;;;5023212;28;20058;-74
2021/06/06 09:03:20;;;;;;;24.65;8.07;;;16.90;99.90;;;;;;5008629;28;20292;-73
2021/06/06 09:05:45;;;;;;;15.68;7.88;;;16.90;99.90;;;;;;5008892;28;20030;-74
2021/06/06 09:08:18;;;;;;;20.17;8.02;;;16.90;99.90;;;;;;5008937;28;20041;-73
2021/06/06 09:10:47;;;;;;;14.18;7.25;;;16.90;99.90;;;;;;5013950;28;20041;-74
2021/06/06 09:13:15;;;;;;;10.73;5.45;;;16.90;99.90;;;;;;5028103;28;20096;-73
2021/06/06 09:15:41;;;;;;;21.52;7.93;;;16.80;99.90;;;;;;5022915;28;20032;-76
2021/06/06 09:18:24;;;;;;;18.35;8.32;;;16.90;99.90;;;;;;5008789;28;20062;-74
2021/06/06 09:20:52;;;;;;;16.75;8.02;;;16.90;99.90;;;;;;5007965;28;20030;-73
2021/06/06 09:23:22;;;;;;;16.20;8.65;;;16.90;99.90;;;;;;5008099;28;20026;-74
2021/06/06 09:26:08;;;;;;;12.45;7.65;;;16.90;99.90;;;;;;5007980;28;20046;-74
2021/06/06 09:28:37;;;;;;;17.92;7.65;;;16.90;99.90;;;;;;5010756;28;20031;-76
2021/06/06 09:31:22;;;;;;;14.23;7.68;;;17.00;99.90;;;;;;5022791;28;20046;-72
2021/06/06 09:34:08;;;;;;;15.15;8.18;;;17.00;99.90;;;;;;5007820;28;20057;-70
2021/06/06 09:36:41;;;;;;;27.40;8.15;;;17.10;99.90;;;;;;5019786;28;20052;-75
2021/06/06 09:39:15;;;;;;;16.98;8.25;;;17.10;99.90;;;;;;5008493;28;20026;-69
2021/06/06 09:41:50;;;;;;;14.07;7.78;;;17.00;99.90;;;;;;5007954;28;20062;-74
2021/06/06 09:44:16;;;;;;;15.73;7.65;;;17.10;99.90;;;;;;5008028;28;20110;-72
2021/06/06 09:46:54;;;;;;;17.17;9.00;;;17.20;99.90;;;;;;5006941;28;20029;-70
2021/06/06 09:49:33;;;;;;;19.63;7.97;;;17.20;99.90;;;;;;5007007;28;20537;-72
2021/06/06 09:52:14;;;;;;;18.17;9.30;;;17.20;99.90;;;;;;5013334;28;20042;-75
2021/06/06 09:54:46;;;;;;;13.38;7.28;;;17.20;99.90;;;;;;5027019;28;20030;-72
2021/06/06 09:57:25;;;;;;;20.27;7.10;;;17.20;99.90;;;;;;5013515;28;20444;-73
2021/06/06 09:59:52;;;;;;;18.23;8.32;;;17.30;99.90;;;;;;5017270;28;20106;-71
2021/06/06 10:02:36;;;;;;;13.52;6.93;;;17.30;99.90;;;;;;5022652;28;20048;-73
2021/06/06 10:05:13;;;;;;;16.17;8.82;;;17.30;99.90;;;;;;5022540;28;20038;-70
2021/06/06 10:07:51;;;;;;;23.08;9.18;;;17.30;99.90;;;;;;5027164;28;20033;-74
2021/06/06 10:10:26;;;;;;;18.60;7.97;;;17.30;99.90;;;;;;5022178;28;20030;-74
2021/06/06 10:12:52;;;;;;;19.08;8.57;;;17.30;99.90;;;;;;5018739;28;20033;-73
2021/06/06 10:15:20;;;;;;;22.13;8.07;;;17.40;99.90;;;;;;5011039;28;20022;-72
2021/06/06 10:17:54;;;;;;;17.90;7.88;;;17.30;99.90;;;;;;5026615;28;20491;-70
2021/06/06 10:20:24;;;;;;;;;;;17.30;99.90;;;;;;5025190;28;20061;-73
2021/06/06 10:22:58;;;;;;;16.60;8.25;;;17.30;99.90;;;;;;5016360;28;19916;-73
2021/06/06 10:25:44;;;;;;;17.02;8.18;;;17.40;99.90;;;;;;5008610;28;20404;-73
2021/06/06 10:28:12;;;;;;;15.52;8.32;;;17.50;99.90;;;;;;5006870;28;20030;-75
2021/06/06 10:31:11;;;;;;;20.67;9.75;;;17.50;99.90;;;;;;5005578;28;20065;-74
2021/06/06 10:33:46;;;;;;;18.40;9.25;;;17.60;99.90;;;;;;5006812;28;20034;-70
2021/06/06 10:36:16;;;;;;;25.67;9.88;;;17.60;99.90;;;;;;5007157;28;20030;-75
2021/06/06 10:38:41;;;;;;;19.80;9.70;;;17.70;99.90;;;;;;5006502;28;20476;-71
2021/06/06 10:41:27;;;;;;;23.30;9.98;;;17.70;99.90;;;;;;5007052;28;20033;-74
2021/06/06 10:44:07;;;;;;;23.08;9.65;;;17.80;99.90;;;;;;5006974;28;20050;-75
2021/06/06 10:46:47;;;;;;;23.17;10.55;;;17.90;99.90;;;;;;5006898;28;20098;-74
2021/06/06 10:49:38;;;;;;;26.75;10.23;;;18.00;99.90;;;;;;5007006;28;20078;-72
2021/06/06 10:52:19;;;;;;;20.17;10.32;;;17.90;99.90;;;;;;5007162;28;20034;-73
2021/06/06 10:54:50;;;;;;;18.90;9.35;;;17.90;99.90;;;;;;5021413;28;20034;-74
2021/06/06 10:57:32;;;;;;;21.58;10.65;;;17.80;99.90;;;;;;5021298;28;20026;-74
2021/06/06 11:00:00;;;;;;;23.35;11.18;;;17.90;99.90;;;;;;5013206;28;20133;-74
2021/06/06 11:02:50;;;;;;;21.55;10.30;;;17.90;99.90;;;;;;5020997;28;20026;-73
2021/06/06 11:05:44;;;;;;;19.35;9.85;;;17.90;99.90;;;;;;5006011;28;20030;-71
2021/06/06 11:08:28;;;;;;;20.35;11.52;;;18.00;99.90;;;;;;5006439;28;20042;-72
2021/06/06 11:11:12;;;;;;;20.58;10.63;;;18.00;99.90;;;;;;5006127;28;20030;-72
2021/06/06 11:13:42;;;;;;;25.90;11.07;;;17.80;99.90;;;;;;5005791;28;20064;-74
2021/06/06 11:16:38;;;;;;;21.67;9.75;;;17.80;99.90;;;;;;5005926;28;20034;-74
2021/06/06 11:19:08;;;;;;;28.60;10.30;;;17.80;99.90;;;;;;5006426;28;20454;-74
2021/06/06 11:21:54;;;;;;;23.15;10.63;;;17.80;99.90;;;;;;5006239;28;20030;-75
2021/06/06 11:24:39;;;;;;;24.63;12.10;;;17.80;99.90;;;;;;5011109;28;20042;-70
2021/06/06 11:27:11;;;;;;;23.08;11.48;;;17.70;99.90;;;;;;5016774;28;20057;-72
2021/06/06 11:30:20;;;;;;;24.02;11.20;;;17.70;99.90;;;;;;5025877;28;20102;-70
2021/06/06 11:33:01;;;;;;;22.45;11.27;;;17.70;99.90;;;;;;5022877;28;20091;-73
2021/06/06 11:35:37;;;;;;;22.33;11.05;;;17.70;99.90;;;;;;5006235;28;20026;-72
2021/06/06 11:38:18;;;;;;;21.55;9.68;;;17.90;99.90;;;;;;5024434;28;20042;-73
2021/06/06 11:40:46;;;;;;;25.15;12.27;;;17.90;99.90;;;;;;5025109;28;20030;-72
2021/06/06 11:43:20;;;;;;;23.45;10.50;;;17.80;99.90;;;;;;5025069;28;20504;-75
2021/06/06 11:45:51;;;;;;;22.85;10.60;;;17.80;99.90;;;;;;5024441;28;20045;-73
2021/06/06 11:48:29;;;;;;;27.98;11.57;;;17.90;99.90;;;;;;5024851;28;20037;-73
2021/06/06 11:50:58;;;;;;;27.33;11.77;;;17.90;99.90;;;;;;5024959;28;20062;-73
2021/06/06 11:53:35;;;;;;;27.17;11.63;;;17.90;99.90;;;;;;5021080;28;20059;-72
2021/06/06 11:56:15;;;;;;;24.63;11.48;;;17.80;99.90;;;;;;5020457;28;20081;-71
2021/06/06 11:58:50;;;;;;;23.40;11.35;;;17.80;99.90;;;;;;5018420;28;20048;-73
2021/06/06 12:01:22;;;;;;;24.67;10.68;;;17.90;99.90;;;;;;5024319;28;20025;-72
2021/06/06 12:03:50;;;;;;;24.08;12.88;;;17.90;99.90;;;;;;5016766;28;20117;-74
2021/06/06 12:06:25;;;;;;;26.63;11.10;;;18.00;99.90;;;;;;5004944;28;20054;-74
2021/06/06 12:08:55;;;;;;;28.30;11.40;;;18.10;99.90;;;;;;5020679;28;20569;-73
2021/06/06 12:11:20;;;;;;;23.38;10.45;;;18.20;99.90;;;;;;5005099;28;20042;-72
2021/06/06 12:13:50;;;;;;;23.35;10.95;;;18.40;99.90;;;;;;5020202;28;20490;-73
2021/06/06 12:16:25;;;;;;;32.05;11.60;;;18.60;99.90;;;;;;5020753;28;20121;-74
2021/06/06 12:19:12;;;;;;;24.27;11.15;;;18.80;99.90;;;;;;5004916;28;20028;-73
2021/06/06 12:21:41;;;;;;;20.50;9.90;;;19.00;99.90;;;;;;5004528;28;20030;-74
2021/06/06 12:24:10;;;;;;;21.83;10.73;;;19.30;99.90;;;;;;5005173;28;20018;-73
2021/06/06 12:26:46;;;;;;;18.67;9.98;;;19.40;99.90;;;;;;5005305;28;20364;-75
2021/06/06 12:29:12;;;;;;;30.73;10.77;;;19.50;99.90;;;;;;5004763;28;20064;-73
2021/06/06 12:31:44;;;;;;;26.88;10.23;;;19.50;99.90;;;;;;5004753;28;20184;-74
2021/06/06 12:34:26;;;;;;;21.23;10.88;;;19.50;99.90;;;;;;5004491;28;20096;-71
2021/06/06 12:37:08;;;;;;;19.88;9.73;;;19.40;99.90;;;;;;5004231;28;20061;-72
2021/06/06 12:39:39;;;;;;;18.13;9.23;;;19.30;99.90;;;;;;5003319;28;20066;-77
2021/06/06 12:42:06;;;;;;;17.38;9.90;;;19.30;99.90;;;;;;5004000;28;20031;-72
2021/06/06 12:44:36;;;;;;;18.88;9.43;;;19.20;99.90;;;;;;5004727;28;20034;-72
2021/06/06 12:47:07;;;;;;;20.05;9.40;;;19.00;99.90;;;;;;5003328;28;20407;-71
2021/06/06 12:49:40;;;;;;;25.77;11.80;;;18.80;99.90;;;;;;5004559;28;20104;-72
2021/06/06 12:52:31;;;;;;;19.17;10.05;;;18.70;99.90;;;;;;5004766;28;20090;-74
2021/06/06 12:54:59;;;;;;;20.75;9.18;;;18.60;99.90;;;;;;5005091;28;20594;-74